Time;durP1;ratioP1;P1;durP2;ratioP2;P2;SDS_P1;SDS_P2;PMS_P1;PMS_P2;Temp;Humidity;BMP_temperature;BMP_pressure;BME280_temperature;BME280_humidity;BME280_pressure;Samples;Min_cycle;Max_cycle;Signal;HPM_P1;HPM_P2
2022/05/06 00:00:07;;;;;;;1.63;1.17;;;;;;;;;;5014538;28;20300;-57
2022/05/06 00:02:54;;;;;;;1.77;1.30;;;;;;;;;;5017867;28;20228;-57
2022/05/06 00:05:42;;;;;;;1.23;1.17;;;;;;;;;;5016147;28;20216;-56
2022/05/06 00:08:29;;;;;;;1.83;1.20;;;;;;;;;;5017927;28;20336;-56
2022/05/06 00:11:16;;;;;;;1.20;1.10;;;;;;;;;;5017438;28;20215;-56
2022/05/06 00:14:04;;;;;;;1.43;1.33;;;;;;;;;;5017274;28;20293;-56
2022/05/06 00:16:50;;;;;;;1.40;1.30;;;;;;;;;;5022495;28;20213;-56
2022/05/06 00:19:37;;;;;;;1.13;1.13;;;;;;;;;;5019268;28;20642;-56
2022/05/06 00:22:26;;;;;;;1.30;1.20;;;;;;;;;;5021463;28;20319;-57
2022/05/06 00:25:12;;;;;;;1.47;1.27;;;;;;;;;;5020437;28;20709;-57
2022/05/06 00:28:00;;;;;;;0.97;0.97;;;;;;;;;;5018174;28;20292;-57
2022/05/06 00:30:47;;;;;;;1.00;1.00;;;;;;;;;;5018820;28;20349;-56
2022/05/06 00:33:34;;;;;;;1.30;1.10;;;;;;;;;;5016099;28;20662;-56
2022/05/06 00:36:21;;;;;;;1.67;1.23;;;;;;;;;;5014765;28;20268;-56
2022/05/06 00:39:09;;;;;;;1.10;1.00;;;;;;;;;;5021271;28;20673;-56
2022/05/06 00:41:56;;;;;;;2.53;1.40;;;;;;;;;;5016968;28;20223;-56
2022/05/06 00:44:43;;;;;;;1.30;1.20;;;;;;;;;;5017962;28;20296;-57
2022/05/06 00:47:30;;;;;;;1.30;1.20;;;;;;;;;;5014742;28;20263;-56
2022/05/06 00:50:18;;;;;;;1.77;1.37;;;;;;;;;;5030753;28;20613;-57
2022/05/06 00:53:08;;;;;;;1.73;1.20;;;;;;;;;;5032445;28;20302;-56
2022/05/06 00:55:57;;;;;;;1.17;1.07;;;;;;;;;;5033550;28;20297;-56
2022/05/06 00:58:45;;;;;;;2.20;1.30;;;;;;;;;;5033376;28;20211;-57
2022/05/06 01:01:32;;;;;;;1.30;1.20;;;;;;;;;;5032248;28;20311;-57
2022/05/06 01:04:19;;;;;;;2.37;1.20;;;;;;;;;;5031244;28;20253;-57
2022/05/06 01:07:06;;;;;;;1.33;1.23;;;;;;;;;;5029031;28;20562;-56
2022/05/06 01:09:53;;;;;;;1.47;1.37;;;;;;;;;;5029378;28;20682;-56
2022/05/06 01:12:41;;;;;;;1.10;1.03;;;;;;;;;;5032286;28;20339;-56
2022/05/06 01:15:29;;;;;;;1.17;1.07;;;;;;;;;;5028273;28;20212;-56
2022/05/06 01:18:16;;;;;;;0.90;0.90;;;;;;;;;;5034869;28;20344;-57
2022/05/06 01:21:06;;;;;;;1.13;1.03;;;;;;;;;;5029293;28;20205;-56
2022/05/06 01:23:54;;;;;;;1.60;1.00;;;;;;;;;;5029296;28;20785;-57
2022/05/06 01:26:57;;;;;;;1.10;1.00;;;;;;;;;;5032437;28;20267;-56
2022/05/06 01:29:47;;;;;;;1.60;1.20;;;;;;;;;;5033529;28;20361;-57
2022/05/06 01:32:35;;;;;;;1.40;1.30;;;;;;;;;;5032868;28;20359;-56
2022/05/06 01:35:23;;;;;;;1.13;1.10;;;;;;;;;;5028984;28;20244;-56
2022/05/06 01:38:12;;;;;;;1.63;1.20;;;;;;;;;;5029694;28;20585;-56
2022/05/06 01:41:04;;;;;;;1.30;1.20;;;;;;;;;;5028332;28;20241;-56
2022/05/06 01:43:54;;;;;;;1.43;1.33;;;;;;;;;;5031640;28;20213;-56
2022/05/06 01:46:42;;;;;;;1.20;1.10;;;;;;;;;;5028672;28;20320;-56
2022/05/06 01:49:32;;;;;;;1.20;1.00;;;;;;;;;;5039947;28;20314;-56
2022/05/06 01:52:19;;;;;;;2.20;1.03;;;;;;;;;;5029557;28;20201;-57
2022/05/06 01:55:07;;;;;;;1.20;1.10;;;;;;;;;;5026941;28;20213;-56
2022/05/06 01:57:55;;;;;;;1.20;1.10;;;;;;;;;;5031351;28;20251;-56
2022/05/06 02:00:42;;;;;;;1.33;1.23;;;;;;;;;;5032134;28;20330;-56
2022/05/06 02:06:34;;;;;;;1.43;1.07;;;;;;;;;;5027547;28;20209;-57
2022/05/06 02:09:21;;;;;;;0.90;0.90;;;;;;;;;;5029603;28;20696;-57
2022/05/06 02:12:09;;;;;;;1.20;1.03;;;;;;;;;;5029802;28;20585;-56
2022/05/06 02:14:57;;;;;;;1.57;1.47;;;;;;;;;;5033450;28;20209;-57
2022/05/06 02:17:45;;;;;;;1.20;1.10;;;;;;;;;;5030647;28;20204;-57
2022/05/06 02:20:32;;;;;;;1.10;1.00;;;;;;;;;;5033853;28;20287;-56
2022/05/06 02:23:18;;;;;;;1.27;1.00;;;;;;;;;;5037023;28;20307;-56
2022/05/06 02:26:05;;;;;;;2.53;1.20;;;;;;;;;;5031518;28;20208;-57
2022/05/06 02:28:52;;;;;;;1.07;0.97;;;;;;;;;;5036588;28;20344;-57
2022/05/06 02:34:46;;;;;;;1.10;1.00;;;;;;;;;;5033391;28;20246;-57
2022/05/06 02:37:34;;;;;;;1.83;1.43;;;;;;;;;;5031797;28;20252;-56
2022/05/06 02:40:21;;;;;;;1.10;1.00;;;;;;;;;;5031808;28;20283;-57
2022/05/06 02:43:08;;;;;;;1.13;1.00;;;;;;;;;;5032424;28;20228;-56
2022/05/06 02:45:55;;;;;;;1.57;1.43;;;;;;;;;;5032199;28;20241;-56
2022/05/06 02:48:43;;;;;;;1.30;1.20;;;;;;;;;;5029708;28;20390;-57
2022/05/06 02:51:30;;;;;;;1.23;1.13;;;;;;;;;;5031759;28;20631;-56
2022/05/06 02:54:21;;;;;;;1.50;1.40;;;;;;;;;;5032192;28;20269;-56
2022/05/06 02:57:08;;;;;;;0.93;0.93;;;;;;;;;;5031732;28;20260;-56
2022/05/06 02:59:56;;;;;;;1.30;1.03;;;;;;;;;;5031536;28;20659;-57
2022/05/06 03:02:43;;;;;;;1.57;1.17;;;;;;;;;;5035238;28;20233;-57
2022/05/06 03:05:32;;;;;;;1.20;1.10;;;;;;;;;;5032167;28;20209;-56
2022/05/06 03:08:19;;;;;;;1.20;1.10;;;;;;;;;;5030953;28;20300;-57
2022/05/06 03:11:06;;;;;;;1.80;1.30;;;;;;;;;;5033240;28;20772;-56
2022/05/06 03:13:52;;;;;;;1.07;1.07;;;;;;;;;;5037285;28;20594;-57
2022/05/06 03:16:39;;;;;;;1.40;1.30;;;;;;;;;;5030182;28;20338;-57
2022/05/06 03:19:27;;;;;;;1.30;1.13;;;;;;;;;;5032823;28;20647;-56
2022/05/06 03:22:16;;;;;;;2.33;1.30;;;;;;;;;;5032580;28;20229;-56
2022/05/06 03:25:04;;;;;;;1.50;1.40;;;;;;;;;;5031554;28;20756;-56
2022/05/06 03:28:01;;;;;;;1.03;1.03;;;;;;;;;;5031538;28;20695;-56
2022/05/06 03:30:49;;;;;;;1.37;1.27;;;;;;;;;;5034369;28;20209;-56
2022/05/06 03:33:36;;;;;;;1.20;1.10;;;;;;;;;;5030874;28;20580;-56
2022/05/06 03:36:23;;;;;;;1.07;1.07;;;;;;;;;;5030418;28;20328;-56
2022/05/06 03:39:12;;;;;;;1.43;1.07;;;;;;;;;;5029587;28;20299;-57
2022/05/06 03:41:58;;;;;;;1.20;0.97;;;;;;;;;;5038231;28;20222;-57
2022/05/06 03:44:45;;;;;;;2.10;1.10;;;;;;;;;;5031559;28;20250;-56
2022/05/06 03:47:32;;;;;;;2.53;1.33;;;;;;;;;;5029299;28;20204;-56
2022/05/06 03:53:24;;;;;;;1.07;1.07;;;;;;;;;;5029843;28;20230;-56
2022/05/06 03:56:12;;;;;;;1.10;1.03;;;;;;;;;;5033320;28;20205;-56
2022/05/06 03:58:59;;;;;;;1.20;1.10;;;;;;;;;;5030289;28;20580;-56
2022/05/06 04:01:46;;;;;;;1.43;1.00;;;;;;;;;;5032696;28;20263;-56
2022/05/06 04:04:33;;;;;;;2.07;1.27;;;;;;;;;;5031991;28;20207;-56
2022/05/06 04:07:20;;;;;;;1.20;1.10;;;;;;;;;;5033265;28;20243;-57
2022/05/06 04:10:07;;;;;;;1.67;1.10;;;;;;;;;;5032587;28;20323;-56
2022/05/06 04:12:55;;;;;;;2.73;1.40;;;;;;;;;;5036921;28;20254;-57
2022/05/06 04:15:42;;;;;;;1.17;1.10;;;;;;;;;;5031750;28;20272;-56
2022/05/06 04:18:29;;;;;;;1.20;1.10;;;;;;;;;;5031049;28;20748;-56
2022/05/06 04:24:21;;;;;;;1.50;1.00;;;;;;;;;;5030917;28;20710;-56
2022/05/06 04:27:08;;;;;;;2.30;1.27;;;;;;;;;;5029004;28;20356;-57
2022/05/06 04:29:56;;;;;;;0.90;0.90;;;;;;;;;;5031525;28;20296;-57
2022/05/06 04:32:43;;;;;;;1.20;1.20;;;;;;;;;;5031195;28;20740;-57
2022/05/06 04:35:30;;;;;;;2.13;1.23;;;;;;;;;;5035996;28;20286;-56
2022/05/06 04:38:17;;;;;;;2.33;1.10;;;;;;;;;;5028705;28;20251;-56
2022/05/06 04:41:04;;;;;;;1.00;1.00;;;;;;;;;;5032349;28;20213;-56
2022/05/06 04:43:51;;;;;;;1.27;1.17;;;;;;;;;;5029348;28;20297;-57
2022/05/06 04:46:39;;;;;;;2.10;1.37;;;;;;;;;;5030633;28;20736;-56
2022/05/06 04:49:26;;;;;;;2.77;1.37;;;;;;;;;;5030034;28;20694;-56
2022/05/06 04:52:13;;;;;;;1.40;1.30;;;;;;;;;;5031221;28;20348;-57
2022/05/06 04:55:00;;;;;;;1.80;1.47;;;;;;;;;;5032998;28;20304;-56
2022/05/06 04:57:47;;;;;;;0.80;0.80;;;;;;;;;;5030828;28;20590;-56
2022/05/06 05:00:35;;;;;;;2.07;1.23;;;;;;;;;;5030125;28;20569;-56
2022/05/06 05:03:23;;;;;;;1.73;1.40;;;;;;;;;;5028852;28;20799;-56
2022/05/06 05:06:10;;;;;;;0.97;0.97;;;;;;;;;;5036954;28;20295;-56
2022/05/06 05:08:57;;;;;;;1.27;1.17;;;;;;;;;;5032653;28;20880;-56
2022/05/06 05:11:44;;;;;;;2.40;1.70;;;;;;;;;;5034206;28;20371;-57
2022/05/06 05:14:31;;;;;;;1.53;1.40;;;;;;;;;;5028361;28;20224;-57
2022/05/06 05:17:18;;;;;;;1.50;1.20;;;;;;;;;;5029658;28;20631;-56
2022/05/06 05:20:08;;;;;;;1.60;1.50;;;;;;;;;;5030109;28;20285;-56
2022/05/06 05:22:55;;;;;;;2.23;1.50;;;;;;;;;;5029922;28;20382;-56
2022/05/06 05:25:42;;;;;;;1.60;1.40;;;;;;;;;;5029837;28;20213;-56
2022/05/06 05:28:29;;;;;;;1.10;1.03;;;;;;;;;;5028585;28;20283;-57
2022/05/06 05:31:16;;;;;;;1.47;1.37;;;;;;;;;;5027990;28;20300;-57
2022/05/06 05:34:03;;;;;;;1.50;1.40;;;;;;;;;;5031002;28;20360;-56
2022/05/06 05:36:51;;;;;;;1.60;1.40;;;;;;;;;;5028187;28;20261;-57
2022/05/06 05:39:38;;;;;;;1.40;1.30;;;;;;;;;;5030228;28;20201;-56
2022/05/06 05:42:27;;;;;;;1.47;1.37;;;;;;;;;;5027712;28;20669;-56
2022/05/06 05:48:21;;;;;;;1.40;1.30;;;;;;;;;;5032328;28;20240;-56
2022/05/06 05:51:08;;;;;;;2.33;1.20;;;;;;;;;;5028610;28;20201;-58
2022/05/06 05:53:57;;;;;;;2.20;1.20;;;;;;;;;;5029760;28;20311;-57
2022/05/06 05:56:44;;;;;;;1.30;1.20;;;;;;;;;;5028024;28;20541;-57
2022/05/06 05:59:31;;;;;;;1.73;1.10;;;;;;;;;;5031072;28;20777;-56
2022/05/06 06:02:19;;;;;;;1.43;1.33;;;;;;;;;;5028563;28;20289;-57
2022/05/06 06:05:07;;;;;;;1.48;1.30;;;;;;;;;;5027603;28;20204;-57
2022/05/06 06:07:54;;;;;;;3.20;1.27;;;;;;;;;;5033520;28;20216;-55
2022/05/06 06:10:42;;;;;;;1.47;1.37;;;;;;;;;;5032857;28;20635;-55
2022/05/06 06:13:30;;;;;;;2.13;1.40;;;;;;;;;;5025359;28;20289;-55
2022/05/06 06:16:19;;;;;;;2.23;1.50;;;;;;;;;;5030273;28;20240;-55
2022/05/06 06:19:06;;;;;;;1.57;1.20;;;;;;;;;;5030451;28;20225;-55
2022/05/06 06:21:53;;;;;;;2.47;1.50;;;;;;;;;;5027673;28;20219;-55
2022/05/06 06:24:40;;;;;;;1.73;1.43;;;;;;;;;;5030339;28;20277;-55
2022/05/06 06:27:28;;;;;;;2.25;1.60;;;;;;;;;;5033929;28;20236;-56
2022/05/06 06:30:15;;;;;;;1.80;1.35;;;;;;;;;;5028806;28;20258;-56
2022/05/06 06:33:03;;;;;;;1.83;1.45;;;;;;;;;;5027853;28;20219;-56
2022/05/06 06:35:49;;;;;;;1.58;1.30;;;;;;;;;;5030778;28;20218;-55
2022/05/06 06:38:36;;;;;;;2.45;1.60;;;;;;;;;;5029749;28;20306;-55
2022/05/06 06:41:23;;;;;;;1.33;1.23;;;;;;;;;;5026121;28;20208;-56
2022/05/06 06:44:12;;;;;;;1.52;1.42;;;;;;;;;;5027213;28;20382;-56
2022/05/06 06:46:59;;;;;;;1.55;1.13;;;;;;;;;;5026527;28;20256;-55
2022/05/06 06:49:46;;;;;;;1.33;1.20;;;;;;;;;;5030814;28;20292;-55
2022/05/06 06:52:33;;;;;;;2.35;1.38;;;;;;;;;;5031694;28;20243;-56
2022/05/06 06:55:20;;;;;;;1.60;1.30;;;;;;;;;;5029452;28;20239;-56
2022/05/06 06:58:07;;;;;;;2.83;1.48;;;;;;;;;;5033134;28;20208;-54
2022/05/06 07:00:55;;;;;;;1.63;1.20;;;;;;;;;;5033257;28;20322;-54
2022/05/06 07:03:42;;;;;;;1.35;0.98;;;;;;;;;;5029586;28;20315;-55
2022/05/06 07:12:38;;;;;;;1.23;1.13;;;;;;;;;;5032340;28;20218;-56
2022/05/06 07:15:29;;;;;;;0.93;0.85;;;;;;;;;;5029866;28;20219;-56
2022/05/06 07:18:18;;;;;;;1.17;0.95;;;;;;;;;;5032822;28;20208;-56
2022/05/06 07:21:05;;;;;;;1.13;0.90;;;;;;;;;;5029975;28;20243;-55
2022/05/06 07:23:51;;;;;;;2.05;1.20;;;;;;;;;;5030529;28;20754;-55
2022/05/06 07:26:38;;;;;;;1.48;1.10;;;;;;;;;;5034836;28;20345;-56
2022/05/06 07:29:25;;;;;;;1.17;1.08;;;;;;;;;;5031970;28;20269;-55
2022/05/06 07:32:12;;;;;;;1.05;1.00;;;;;;;;;;5032587;28;20286;-55
2022/05/06 07:35:01;;;;;;;1.25;1.15;;;;;;;;;;5031828;28;20243;-55
2022/05/06 07:37:48;;;;;;;1.23;1.13;;;;;;;;;;5031025;28;20214;-55
2022/05/06 07:40:35;;;;;;;1.90;1.13;;;;;;;;;;5032406;28;20264;-56
2022/05/06 07:43:22;;;;;;;1.25;1.15;;;;;;;;;;5031945;28;20311;-56
2022/05/06 07:46:09;;;;;;;1.00;1.00;;;;;;;;;;5032186;28;20213;-56
2022/05/06 07:48:56;;;;;;;1.23;0.98;;;;;;;;;;5034720;28;20236;-55
2022/05/06 07:51:45;;;;;;;0.77;0.77;;;;;;;;;;5029449;28;20213;-55
2022/05/06 07:54:32;;;;;;;1.25;1.00;;;;;;;;;;5032800;28;20282;-56
2022/05/06 07:57:19;;;;;;;1.00;0.95;;;;;;;;;;5035060;28;20324;-56
2022/05/06 08:00:07;;;;;;;1.17;1.08;;;;;;;;;;5030960;28;20864;-55
2022/05/06 08:05:59;;;;;;;1.13;0.85;;;;;;;;;;5034420;28;20691;-55
2022/05/06 08:08:48;;;;;;;1.05;0.90;;;;;;;;;;5036376;28;20215;-55
2022/05/06 08:11:36;;;;;;;0.68;0.68;;;;;;;;;;5034490;28;20738;-56
2022/05/06 08:14:23;;;;;;;1.63;0.77;;;;;;;;;;5031675;28;20235;-56
2022/05/06 08:17:10;;;;;;;1.27;1.00;;;;;;;;;;5031591;28;20326;-56
2022/05/06 08:19:57;;;;;;;0.80;0.80;;;;;;;;;;5029800;28;20227;-55
2022/05/06 08:22:44;;;;;;;0.87;0.70;;;;;;;;;;5030284;28;20298;-56
2022/05/06 08:25:32;;;;;;;0.60;0.60;;;;;;;;;;5031001;28;20237;-56
2022/05/06 08:28:19;;;;;;;0.87;0.87;;;;;;;;;;5031669;28;20728;-55
2022/05/06 08:31:06;;;;;;;1.00;0.90;;;;;;;;;;5030243;28;20199;-55
2022/05/06 08:33:53;;;;;;;0.80;0.80;;;;;;;;;;5030199;28;20206;-56
2022/05/06 08:36:43;;;;;;;0.80;0.70;;;;;;;;;;5030472;28;20206;-56
2022/05/06 08:39:30;;;;;;;1.03;0.90;;;;;;;;;;5029068;28;20199;-55
2022/05/06 08:42:20;;;;;;;0.80;0.77;;;;;;;;;;5030465;28;20619;-56
2022/05/06 08:51:25;;;;;;;0.80;0.80;;;;;;;;;;5033149;28;20796;-55
2022/05/06 08:54:12;;;;;;;0.90;0.90;;;;;;;;;;5034653;28;20313;-55
2022/05/06 08:56:59;;;;;;;1.23;0.80;;;;;;;;;;5030924;28;20299;-56
2022/05/06 08:59:52;;;;;;;0.77;0.77;;;;;;;;;;5028572;28;20249;-57
2022/05/06 09:02:39;;;;;;;0.83;0.80;;;;;;;;;;5031352;28;20219;-55
2022/05/06 09:05:27;;;;;;;1.13;0.97;;;;;;;;;;5030825;28;20596;-56
2022/05/06 09:08:13;;;;;;;1.07;0.80;;;;;;;;;;5031278;28;20205;-56
2022/05/06 09:11:04;;;;;;;1.43;0.83;;;;;;;;;;5031661;28;20619;-56
2022/05/06 09:13:56;;;;;;;0.80;0.70;;;;;;;;;;5028308;28;20337;-56
2022/05/06 09:16:44;;;;;;;1.03;0.80;;;;;;;;;;5029129;28;20213;-55
2022/05/06 09:19:33;;;;;;;0.80;0.80;;;;;;;;;;5025686;28;20609;-56
2022/05/06 09:22:20;;;;;;;1.03;0.90;;;;;;;;;;5027793;28;20314;-56
2022/05/06 09:25:07;;;;;;;0.80;0.80;;;;;;;;;;5027025;28;20262;-56
2022/05/06 09:27:55;;;;;;;1.80;0.70;;;;;;;;;;5024450;28;20875;-56
2022/05/06 09:30:58;;;;;;;0.70;0.70;;;;;;;;;;5028964;28;20206;-55
2022/05/06 09:33:47;;;;;;;0.90;0.70;;;;;;;;;;5031622;28;20642;-56
2022/05/06 09:36:34;;;;;;;0.90;0.90;;;;;;;;;;5029416;28;20208;-56
2022/05/06 09:39:22;;;;;;;0.77;0.77;;;;;;;;;;5033544;28;20244;-55
2022/05/06 09:42:09;;;;;;;0.87;0.87;;;;;;;;;;5027230;28;20310;-56
2022/05/06 09:44:56;;;;;;;0.63;0.63;;;;;;;;;;5023853;28;20688;-56
2022/05/06 09:47:43;;;;;;;1.43;0.80;;;;;;;;;;5027787;28;20208;-56
2022/05/06 09:50:38;;;;;;;1.23;0.70;;;;;;;;;;5026916;28;20216;-56
2022/05/06 09:53:25;;;;;;;1.13;0.60;;;;;;;;;;5026117;28;20308;-55
2022/05/06 09:56:12;;;;;;;2.00;0.67;;;;;;;;;;5031312;28;20222;-55
2022/05/06 09:58:59;;;;;;;0.80;0.80;;;;;;;;;;5029130;28;20214;-56
2022/05/06 10:01:47;;;;;;;1.10;1.00;;;;;;;;;;5028911;28;20363;-56
2022/05/06 10:04:35;;;;;;;0.80;0.80;;;;;;;;;;5036565;28;20363;-55
2022/05/06 10:07:25;;;;;;;0.63;0.63;;;;;;;;;;5030061;28;20268;-55
2022/05/06 10:10:19;;;;;;;1.27;0.80;;;;;;;;;;5034195;28;20214;-55
2022/05/06 10:13:13;;;;;;;0.60;0.60;;;;;;;;;;5030223;28;20256;-56
2022/05/06 10:16:00;;;;;;;1.17;0.77;;;;;;;;;;5029943;28;20690;-55
2022/05/06 10:18:47;;;;;;;0.70;0.70;;;;;;;;;;5028620;28;20219;-55
2022/05/06 10:21:56;;;;;;;0.50;0.50;;;;;;;;;;5030417;28;20666;-55
2022/05/06 10:24:49;;;;;;;0.83;0.73;;;;;;;;;;5029418;28;20223;-55
2022/05/06 10:34:09;;;;;;;0.93;0.87;;;;;;;;;;5032405;28;20201;-56
2022/05/06 10:36:58;;;;;;;1.00;1.00;;;;;;;;;;5034485;28;20217;-57
2022/05/06 10:39:46;;;;;;;1.07;0.97;;;;;;;;;;5033969;28;20694;-56
2022/05/06 10:42:34;;;;;;;1.23;0.80;;;;;;;;;;5036137;28;20209;-56
2022/05/06 10:45:24;;;;;;;0.93;0.93;;;;;;;;;;5039771;28;20689;-55
2022/05/06 10:48:19;;;;;;;1.10;0.97;;;;;;;;;;5032056;28;20333;-55
2022/05/06 10:51:20;;;;;;;1.23;1.00;;;;;;;;;;5039971;28;20684;-55
2022/05/06 10:54:14;;;;;;;0.80;0.80;;;;;;;;;;5031033;28;20240;-55
2022/05/06 10:57:07;;;;;;;0.90;0.90;;;;;;;;;;5033734;28;20715;-56
2022/05/06 10:59:55;;;;;;;0.80;0.80;;;;;;;;;;5033686;28;20566;-57
2022/05/06 11:02:43;;;;;;;0.93;0.93;;;;;;;;;;5037739;28;20208;-55
2022/05/06 11:05:31;;;;;;;1.00;0.87;;;;;;;;;;5029575;28;20316;-55
2022/05/06 11:08:20;;;;;;;0.70;0.70;;;;;;;;;;5031667;28;20241;-56
2022/05/06 11:11:15;;;;;;;0.90;0.90;;;;;;;;;;5033453;28;20212;-56
2022/05/06 11:14:22;;;;;;;1.07;0.97;;;;;;;;;;5032385;28;20208;-56
2022/05/06 11:17:16;;;;;;;1.00;0.90;;;;;;;;;;5037843;28;20218;-56
2022/05/06 11:20:05;;;;;;;0.97;0.93;;;;;;;;;;5031540;28;20271;-56
2022/05/06 11:22:56;;;;;;;0.77;0.77;;;;;;;;;;5031301;28;20240;-56
2022/05/06 11:25:45;;;;;;;1.57;1.13;;;;;;;;;;5032504;28;20225;-57
2022/05/06 11:28:32;;;;;;;1.30;0.80;;;;;;;;;;5032093;28;20365;-57
2022/05/06 11:31:21;;;;;;;0.70;0.70;;;;;;;;;;5033655;28;20235;-56
2022/05/06 11:34:10;;;;;;;1.20;0.83;;;;;;;;;;5031757;28;20229;-56
2022/05/06 11:36:58;;;;;;;0.90;0.90;;;;;;;;;;5033825;28;20821;-56
2022/05/06 11:39:45;;;;;;;0.90;0.83;;;;;;;;;;5032396;28;20295;-56
2022/05/06 11:42:37;;;;;;;0.90;0.87;;;;;;;;;;5044721;28;20696;-56
2022/05/06 11:48:30;;;;;;;0.90;0.90;;;;;;;;;;5032753;28;20240;-57
2022/05/06 11:51:20;;;;;;;1.00;1.00;;;;;;;;;;5034845;28;20678;-57
2022/05/06 11:54:08;;;;;;;0.80;0.80;;;;;;;;;;5030725;28;20314;-56
2022/05/06 11:56:55;;;;;;;0.87;0.87;;;;;;;;;;5039075;28;20673;-56
2022/05/06 11:59:43;;;;;;;1.07;1.00;;;;;;;;;;5031867;28;20623;-57
2022/05/06 12:02:30;;;;;;;0.93;0.93;;;;;;;;;;5037072;28;20572;-57
2022/05/06 12:05:19;;;;;;;1.37;0.97;;;;;;;;;;5034159;28;20311;-56
2022/05/06 12:08:07;;;;;;;0.80;0.80;;;;;;;;;;5030456;28;20295;-57
2022/05/06 12:10:59;;;;;;;0.90;0.90;;;;;;;;;;5031984;28;20205;-56
2022/05/06 12:13:46;;;;;;;0.90;0.90;;;;;;;;;;5034367;28;20220;-56
2022/05/06 12:16:33;;;;;;;0.80;0.80;;;;;;;;;;5035453;28;20204;-56
2022/05/06 12:19:20;;;;;;;1.10;1.10;;;;;;;;;;5030688;28;20335;-57
2022/05/06 12:22:10;;;;;;;0.80;0.80;;;;;;;;;;5034930;28;20212;-56
2022/05/06 12:24:58;;;;;;;0.80;0.80;;;;;;;;;;5030525;28;20229;-57
2022/05/06 12:27:45;;;;;;;2.07;0.90;;;;;;;;;;5030873;28;20244;-57
2022/05/06 12:30:32;;;;;;;1.50;1.17;;;;;;;;;;5032182;28;20678;-56
2022/05/06 12:33:19;;;;;;;0.80;0.80;;;;;;;;;;5032544;28;20204;-56
2022/05/06 12:36:08;;;;;;;0.93;0.90;;;;;;;;;;5029508;28;20303;-56
2022/05/06 12:38:57;;;;;;;1.00;1.00;;;;;;;;;;5033228;28;20223;-56
2022/05/06 12:41:44;;;;;;;0.60;0.60;;;;;;;;;;5029452;28;20232;-56
2022/05/06 12:44:32;;;;;;;1.77;0.83;;;;;;;;;;5029920;28;20240;-56
2022/05/06 12:50:22;;;;;;;0.80;0.80;;;;;;;;;;5031206;28;20235;-56
2022/05/06 12:53:09;;;;;;;1.00;1.00;;;;;;;;;;5030268;28;20285;-56
2022/05/06 12:55:57;;;;;;;0.70;0.70;;;;;;;;;;5030579;28;20259;-56
2022/05/06 12:58:44;;;;;;;2.40;0.80;;;;;;;;;;5029867;28;20321;-56
2022/05/06 13:01:32;;;;;;;1.10;1.10;;;;;;;;;;5028988;28;20725;-56
2022/05/06 13:04:19;;;;;;;1.10;0.90;;;;;;;;;;5032136;28;20311;-56
2022/05/06 13:07:06;;;;;;;0.80;0.80;;;;;;;;;;5032199;28;20278;-56
2022/05/06 13:09:53;;;;;;;0.80;0.80;;;;;;;;;;5035679;28;20295;-56
2022/05/06 13:12:42;;;;;;;1.10;1.00;;;;;;;;;;5024774;28;20211;-56
2022/05/06 13:15:29;;;;;;;0.80;0.80;;;;;;;;;;5028292;28;20231;-56
2022/05/06 13:18:16;;;;;;;1.10;1.00;;;;;;;;;;5030293;28;20578;-57
2022/05/06 13:21:03;;;;;;;0.90;0.90;;;;;;;;;;5031445;28;20231;-56
2022/05/06 13:23:50;;;;;;;1.67;1.10;;;;;;;;;;5032369;28;20292;-56
2022/05/06 13:26:38;;;;;;;0.97;0.97;;;;;;;;;;5032518;28;21013;-56
2022/05/06 13:29:26;;;;;;;0.87;0.87;;;;;;;;;;5030892;28;20326;-56
2022/05/06 13:32:13;;;;;;;1.13;1.00;;;;;;;;;;5028214;28;20371;-56
2022/05/06 13:35:00;;;;;;;1.27;1.17;;;;;;;;;;5035199;28;20329;-56
2022/05/06 13:37:46;;;;;;;1.00;1.00;;;;;;;;;;5035391;28;20330;-56
2022/05/06 13:40:33;;;;;;;0.70;0.70;;;;;;;;;;5029664;28;20250;-56
2022/05/06 13:43:21;;;;;;;1.00;1.00;;;;;;;;;;5029452;28;20208;-55
2022/05/06 13:46:09;;;;;;;1.00;1.00;;;;;;;;;;5028533;28;20322;-56
2022/05/06 13:48:56;;;;;;;1.03;1.03;;;;;;;;;;5032697;28;20304;-56
2022/05/06 13:51:43;;;;;;;1.10;1.10;;;;;;;;;;5032498;28;20302;-56
2022/05/06 13:54:30;;;;;;;1.10;1.10;;;;;;;;;;5035063;28;20289;-56
2022/05/06 14:00:22;;;;;;;1.13;1.10;;;;;;;;;;5027901;28;20775;-56
2022/05/06 14:03:11;;;;;;;1.17;1.07;;;;;;;;;;5029302;28;20212;-56
2022/05/06 14:05:58;;;;;;;1.00;1.00;;;;;;;;;;5030477;28;20238;-56
2022/05/06 14:08:45;;;;;;;0.90;0.90;;;;;;;;;;5036964;28;20303;-56
2022/05/06 14:11:32;;;;;;;1.20;1.20;;;;;;;;;;5029889;28;20210;-56
2022/05/06 14:14:20;;;;;;;1.07;1.07;;;;;;;;;;5031491;28;20639;-56
2022/05/06 14:17:07;;;;;;;0.83;0.83;;;;;;;;;;5029598;28;20206;-56
2022/05/06 14:19:55;;;;;;;1.00;1.00;;;;;;;;;;5034649;28;20285;-56
2022/05/06 14:22:42;;;;;;;1.20;1.10;;;;;;;;;;5036542;28;20222;-57
2022/05/06 14:25:29;;;;;;;1.30;1.30;;;;;;;;;;5033026;28;20721;-56
2022/05/06 14:28:16;;;;;;;1.10;1.10;;;;;;;;;;5031285;28;20214;-64
2022/05/06 14:31:03;;;;;;;1.20;1.10;;;;;;;;;;5032881;28;20303;-55
2022/05/06 14:33:50;;;;;;;1.37;1.37;;;;;;;;;;5031463;28;20258;-56
2022/05/06 14:36:38;;;;;;;1.60;1.50;;;;;;;;;;5030675;28;20369;-56
2022/05/06 14:39:25;;;;;;;1.40;1.40;;;;;;;;;;5032475;28;20285;-56
2022/05/06 14:42:12;;;;;;;1.63;1.57;;;;;;;;;;5031593;28;20270;-56
2022/05/06 14:45:00;;;;;;;1.63;1.40;;;;;;;;;;5029562;28;21010;-55
2022/05/06 14:47:47;;;;;;;1.67;1.57;;;;;;;;;;5032306;28;20608;-56
2022/05/06 14:50:34;;;;;;;1.57;1.47;;;;;;;;;;5032598;28;20293;-56
2022/05/06 14:53:22;;;;;;;1.80;1.70;;;;;;;;;;5031571;28;20713;-56
2022/05/06 14:56:09;;;;;;;1.30;1.30;;;;;;;;;;5030461;28;20292;-56
2022/05/06 14:58:57;;;;;;;1.80;1.70;;;;;;;;;;5032645;28;20237;-56
2022/05/06 15:01:44;;;;;;;1.43;1.33;;;;;;;;;;5030757;28;20210;-56
2022/05/06 15:04:31;;;;;;;1.53;1.50;;;;;;;;;;5032211;28;20324;-56
2022/05/06 15:07:18;;;;;;;1.90;1.80;;;;;;;;;;5032122;28;20671;-56
2022/05/06 15:10:07;;;;;;;1.83;1.63;;;;;;;;;;5028467;28;20216;-56
2022/05/06 15:12:54;;;;;;;1.70;1.60;;;;;;;;;;5031648;28;20296;-56
2022/05/06 15:15:41;;;;;;;1.70;1.60;;;;;;;;;;5028381;28;20345;-56
2022/05/06 15:21:32;;;;;;;1.50;1.40;;;;;;;;;;5029123;28;20257;-56
2022/05/06 15:24:21;;;;;;;1.70;1.60;;;;;;;;;;5031065;28;20352;-57
2022/05/06 15:27:09;;;;;;;1.70;1.60;;;;;;;;;;5034107;28;20238;-57
2022/05/06 15:29:56;;;;;;;1.80;1.70;;;;;;;;;;5037040;28;20618;-56
2022/05/06 15:32:43;;;;;;;1.80;1.70;;;;;;;;;;5030968;28;20591;-56
2022/05/06 15:35:30;;;;;;;1.80;1.70;;;;;;;;;;5032226;28;20202;-56
2022/05/06 15:38:18;;;;;;;1.90;1.80;;;;;;;;;;5031238;28;20245;-56
2022/05/06 15:41:05;;;;;;;1.53;1.53;;;;;;;;;;5031213;28;20298;-55
2022/05/06 15:43:53;;;;;;;1.50;1.50;;;;;;;;;;5028385;28;20529;-56
2022/05/06 15:46:40;;;;;;;1.90;1.80;;;;;;;;;;5024738;28;20238;-56
2022/05/06 15:49:27;;;;;;;1.60;1.60;;;;;;;;;;5029543;28;20372;-56
2022/05/06 15:52:14;;;;;;;1.63;1.53;;;;;;;;;;5030795;28;20208;-56
2022/05/06 15:55:01;;;;;;;1.93;1.83;;;;;;;;;;5031322;28;20217;-56
2022/05/06 15:57:48;;;;;;;1.73;1.63;;;;;;;;;;5034424;28;20604;-56
2022/05/06 16:00:36;;;;;;;1.90;1.80;;;;;;;;;;5032879;28;20661;-56
2022/05/06 16:03:23;;;;;;;2.00;1.90;;;;;;;;;;5032999;28;20299;-56
2022/05/06 16:06:10;;;;;;;1.83;1.73;;;;;;;;;;5031834;28;20335;-55
2022/05/06 16:08:57;;;;;;;2.07;1.97;;;;;;;;;;5032368;28;20212;-55
2022/05/06 16:11:44;;;;;;;1.73;1.70;;;;;;;;;;5031575;28;20296;-56
2022/05/06 16:17:37;;;;;;;1.80;1.80;;;;;;;;;;5030748;28;20244;-56
2022/05/06 16:20:25;;;;;;;2.00;1.90;;;;;;;;;;5030464;28;20213;-57
2022/05/06 16:23:12;;;;;;;1.93;1.87;;;;;;;;;;5031830;28;20212;-55
2022/05/06 16:25:59;;;;;;;2.40;1.90;;;;;;;;;;5030016;28;21153;-57
2022/05/06 16:28:46;;;;;;;2.00;1.90;;;;;;;;;;5030993;28;20271;-56
2022/05/06 16:31:33;;;;;;;2.03;1.93;;;;;;;;;;5029590;28;20303;-56
2022/05/06 16:37:26;;;;;;;1.80;1.70;;;;;;;;;;5029573;28;20290;-57
2022/05/06 16:40:14;;;;;;;1.90;1.80;;;;;;;;;;5033071;28;20284;-56
2022/05/06 16:43:03;;;;;;;1.87;1.80;;;;;;;;;;5036098;28;20217;-56
2022/05/06 16:45:50;;;;;;;1.90;1.80;;;;;;;;;;5029751;28;20244;-55
2022/05/06 16:48:37;;;;;;;1.90;1.80;;;;;;;;;;5029699;28;20694;-57
2022/05/06 16:51:26;;;;;;;1.63;1.60;;;;;;;;;;5030085;28;20230;-56
2022/05/06 16:54:13;;;;;;;1.93;1.83;;;;;;;;;;5027222;28;20233;-56
2022/05/06 16:57:00;;;;;;;1.60;1.60;;;;;;;;;;5031113;28;20201;-56
2022/05/06 16:59:47;;;;;;;2.30;2.10;;;;;;;;;;5032209;28;20215;-56
2022/05/06 17:02:33;;;;;;;2.13;1.93;;;;;;;;;;5033136;28;20205;-57
2022/05/06 17:05:20;;;;;;;2.10;2.00;;;;;;;;;;5030693;28;20680;-56
2022/05/06 17:08:12;;;;;;;2.13;2.03;;;;;;;;;;5028663;28;20209;-55
2022/05/06 17:11:09;;;;;;;2.00;1.90;;;;;;;;;;5032683;28;20277;-56
2022/05/06 17:13:56;;;;;;;1.80;1.77;;;;;;;;;;5027207;28;20212;-55
2022/05/06 17:16:43;;;;;;;2.03;1.93;;;;;;;;;;5029508;28;20725;-55
2022/05/06 17:19:31;;;;;;;1.93;1.83;;;;;;;;;;5027159;28;20216;-55
2022/05/06 17:22:18;;;;;;;2.10;2.00;;;;;;;;;;5032845;28;20918;-56
2022/05/06 17:25:07;;;;;;;1.90;1.80;;;;;;;;;;5029966;28;20213;-56
2022/05/06 17:27:54;;;;;;;1.93;1.87;;;;;;;;;;5031298;28;20254;-56
2022/05/06 17:30:41;;;;;;;1.90;1.80;;;;;;;;;;5028318;28;20291;-56
2022/05/06 17:33:28;;;;;;;2.10;2.00;;;;;;;;;;5029838;28;20233;-56
2022/05/06 17:36:15;;;;;;;2.10;2.00;;;;;;;;;;5031782;28;20235;-56
2022/05/06 17:39:03;;;;;;;2.03;1.93;;;;;;;;;;5031626;28;20675;-55
2022/05/06 17:41:51;;;;;;;2.03;1.93;;;;;;;;;;5029514;28;20216;-56